Yamato — JD2252 — position and weather

sailwx.info

Track history (hours):
 
Tides and Currents Weather Stations Pressure Air Temp Water Temp Dewpoint Dewpoint Depression Visibility Wind Speed Wind Dir Waves Ship Positions

Yamato

Last reported at 2016-May-03 02:33 UTC. Time now 2016-May-03 03:00 UTC.
Position N 35°27' E 139°40'.

Length 40 m; draft 3.6 m.

Type: Tug. MMSI: 431101141.

Date/timePositionNaut miles runAvg speedWind from/ knotsBaromVisibWave heightAir tempDewpointWater temp
2016-May-03 02:33N 35°27' E 139°40'0 0.0
2016-May-03 01:34N 35°27' E 139°40'0 0.0
2016-May-03 00:34N 35°27' E 139°40'1 1.2
2016-May-02 23:33N 35°26' E 139°41'1 1.2
2016-May-02 22:34N 35°26' E 139°42'2 0.1
2016-May-02 06:33N 35°27' E 139°40'0 0.0
2016-May-02 05:33N 35°27' E 139°40'2 1.7
2016-May-02 04:33N 35°26' E 139°42'4 3.7
2016-May-02 03:34N 35°24' E 139°38'3 2.9
2016-May-02 02:33N 35°24' E 139°42'3 3.3
2016-May-02 01:33N 35°27' E 139°40'0 0.0
2016-May-02 00:34N 35°27' E 139°40'0 0.0
2016-May-01 23:33N 35°27' E 139°40'2 1.8
2016-May-01 22:33N 35°29' E 139°39'3 3.4
2016-May-01 21:33N 35°27' E 139°42'2 2.2
2016-May-01 20:33N 35°27' E 139°40'0 0.0
2016-May-01 19:33N 35°27' E 139°40'0 0.0
2016-May-01 18:33N 35°27' E 139°40'0 0.0
2016-May-01 17:33N 35°27' E 139°40'0 0.0
2016-May-01 16:33N 35°27' E 139°40'0 0.0
2016-May-01 15:33N 35°27' E 139°40'0 0.0
2016-May-01 14:33N 35°27' E 139°40'0 0.0
2016-May-01 13:33N 35°27' E 139°40'0 0.0
2016-May-01 12:33N 35°27' E 139°40'0 0.0
2016-May-01 11:33N 35°27' E 139°40'0 0.0
2016-May-01 10:34N 35°27' E 139°40'0 0.0
2016-May-01 09:33N 35°27' E 139°40'0 0.0
2016-May-01 08:33N 35°27' E 139°40'2 1.8
2016-May-01 07:33N 35°28' E 139°42'2 1.8
2016-May-01 06:33N 35°27' E 139°40'0 0.0
2016-May-01 05:34N 35°27' E 139°40'0 0.0
2016-May-01 04:34N 35°27' E 139°40'0 0.0
2016-May-01 03:33N 35°27' E 139°40'0 0.0
2016-May-01 02:33N 35°27' E 139°40'0 0.0
2016-May-01 01:33N 35°27' E 139°40'0 0.0
2016-May-01 00:33N 35°27' E 139°40'5 5.1
2016-Apr-30 23:34N 35°30' E 139°44'3 2.8
2016-Apr-30 22:33N 35°29' E 139°42'3 2.7
2016-Apr-30 21:33N 35°27' E 139°39'0 0.0
2016-Apr-30 20:33N 35°27' E 139°39'0 0.0
2016-Apr-30 19:34N 35°27' E 139°39'0 0.0
2016-Apr-30 18:34N 35°27' E 139°39'0 0.0
2016-Apr-30 17:33N 35°27' E 139°39'0 0.0
2016-Apr-30 16:34N 35°27' E 139°39'0 0.0
2016-Apr-30 15:33N 35°27' E 139°39'0 0.0
2016-Apr-30 14:33N 35°27' E 139°39'0 0.0
2016-Apr-30 13:33N 35°27' E 139°39'0 0.0
2016-Apr-30 12:33N 35°27' E 139°39'0 0.0
2016-Apr-30 11:33N 35°27' E 139°39'0 0.0
2016-Apr-30 10:33N 35°27' E 139°39'0 0.0
2016-Apr-30 09:33N 35°27' E 139°39'0 0.0
2016-Apr-30 08:33N 35°27' E 139°39'2 1.8
2016-Apr-30 07:34N 35°27' E 139°41'2 1.8
2016-Apr-30 06:33N 35°27' E 139°39'0 0.0
2016-Apr-30 05:33N 35°27' E 139°39'0 0.0
2016-Apr-30 04:33N 35°27' E 139°39'1 1.3
2016-Apr-30 03:34N 35°27' E 139°40'4 3.5
2016-Apr-30 02:33N 35°28' E 139°44'5 4.8
2016-Apr-30 01:33N 35°27' E 139°39'0 0.0
2016-Apr-30 00:33N 35°27' E 139°39'0 0.0
2016-Apr-29 23:33N 35°27' E 139°39'0 0.0
2016-Apr-29 22:33N 35°27' E 139°39'0 0.0
2016-Apr-29 21:33N 35°27' E 139°39'0 0.0
2016-Apr-29 20:33N 35°27' E 139°39'0 0.0
2016-Apr-29 19:33N 35°27' E 139°39'0 0.0
2016-Apr-29 18:33N 35°27' E 139°39'0 0.0
2016-Apr-29 17:33N 35°27' E 139°39'0 0.0
2016-Apr-29 16:33N 35°27' E 139°39'0 0.0
2016-Apr-29 15:33N 35°27' E 139°39'0 0.0
2016-Apr-29 14:33N 35°27' E 139°39'0 0.0
2016-Apr-29 13:33N 35°27' E 139°39'0 0.0
2016-Apr-29 12:33N 35°27' E 139°39'0 0.0
2016-Apr-29 11:33N 35°27' E 139°39'0 0.0
2016-Apr-29 10:33N 35°27' E 139°39'0 0.0
2016-Apr-29 09:33N 35°27' E 139°39'0 0.0
2016-Apr-29 08:34N 35°27' E 139°39'6 6.2
2016-Apr-29 07:33N 35°31' E 139°45'3 3.3
2016-Apr-29 06:33N 35°29' E 139°42'2 1.7
2016-Apr-29 05:33N 35°27' E 139°42'2 1.7
2016-Apr-29 04:33N 35°28' E 139°44'0 0.0
2016-Apr-29 03:33N 35°28' E 139°44'0 0.0
2016-Apr-29 02:33N 35°28' E 139°44'0 0.0
2016-Apr-29 01:33N 35°28' E 139°44'0 0.0
2016-Apr-29 00:33N 35°28' E 139°44'1 1.0
2016-Apr-28 23:34N 35°29' E 139°44'1 1.2
2016-Apr-28 22:33N 35°28' E 139°45'0 0.5
2016-Apr-28 21:33N 35°28' E 139°45'3 3.1
2016-Apr-28 20:33N 35°27' E 139°41'2 2.3
2016-Apr-28 19:33N 35°27' E 139°39'0 0.0
2016-Apr-28 18:33N 35°27' E 139°39'0 0.0
2016-Apr-28 17:33N 35°27' E 139°39'0 0.0
2016-Apr-28 16:33N 35°27' E 139°39'0 0.0
2016-Apr-28 15:33N 35°27' E 139°39'0 0.0
2016-Apr-28 14:33N 35°27' E 139°39'0 0.0
2016-Apr-28 13:33N 35°27' E 139°39'0 0.0
2016-Apr-28 12:33N 35°27' E 139°39'1 0.5
2016-Apr-28 11:33N 35°27' E 139°39'2 2.4
2016-Apr-28 10:33N 35°26' E 139°42'0 0.4
2016-Apr-28 09:33N 35°27' E 139°42'1 1.0
2016-Apr-28 08:33N 35°26' E 139°41'2 2.2
2016-Apr-28 07:33N 35°27' E 139°39'0 0.0
2016-Apr-28 06:33N 35°27' E 139°39'0 0.0
2016-Apr-28 05:33N 35°27' E 139°39'0 0.0
2016-Apr-28 04:33N 35°27' E 139°39'0 0.0
2016-Apr-28 03:33N 35°27' E 139°39'0 0.0
2016-Apr-28 02:33N 35°27' E 139°39'0 0.0
2016-Apr-28 01:33N 35°27' E 139°39'0 0.0
2016-Apr-28 00:33N 35°27' E 139°39'4 4.0
2016-Apr-27 23:33N 35°28' E 139°43'3 3.2
2016-Apr-27 22:34N 35°30' E 139°46'1 0.7
2016-Apr-27 21:33N 35°30' E 139°47'3 3.4
2016-Apr-27 20:33N 35°29' E 139°43'4 0.3
2016-Apr-27 07:33N 35°26' E 139°41'1 1.1
2016-Apr-27 06:33N 35°27' E 139°42'0 0.0
2016-Apr-27 05:33N 35°27' E 139°42'1 1.4
2016-Apr-27 04:33N 35°28' E 139°40'0 0.0
2016-Apr-27 03:33N 35°28' E 139°40'1 1.3
2016-Apr-27 02:33N 35°26' E 139°41'2 2.1
2016-Apr-27 01:33N 35°27' E 139°39'0 0.0
2016-Apr-27 00:33N 35°27' E 139°39'0 0.0
2016-Apr-26 23:33N 35°27' E 139°39'2 0.1
2016-Apr-25 23:33N 35°27' E 139°41'4 3.6
2016-Apr-25 22:33N 35°23' E 139°41'3 2.6
2016-Apr-25 21:33N 35°26' E 139°42'0 0.0
2016-Apr-25 20:33N 35°26' E 139°42'0 0.0
2016-Apr-25 19:33N 35°26' E 139°42'0 0.0
2016-Apr-25 18:33N 35°26' E 139°42'1 1.5
2016-Apr-25 17:33N 35°27' E 139°40'2 1.6
2016-Apr-25 16:33N 35°27' E 139°39'0 0.0
2016-Apr-25 15:33N 35°27' E 139°39'0 0.0
2016-Apr-25 14:33N 35°27' E 139°39'0 0.0
2016-Apr-25 13:33N 35°27' E 139°39'0 0.0
2016-Apr-25 12:33N 35°27' E 139°39'0 0.0
2016-Apr-25 11:33N 35°27' E 139°39'0 0.0
2016-Apr-25 10:33N 35°27' E 139°39'3 2.5
2016-Apr-25 09:33N 35°27' E 139°42'0 0.4
2016-Apr-25 08:33N 35°27' E 139°42'0 0.0
2016-Apr-25 07:33N 35°27' E 139°42'0 0.0
2016-Apr-25 06:33N 35°27' E 139°42'1 1.0
2016-Apr-25 05:33N 35°27' E 139°41'2 2.0
2016-Apr-25 04:33N 35°27' E 139°39'0 0.0
2016-Apr-25 03:33N 35°27' E 139°39'0 0.0
2016-Apr-25 02:33N 35°27' E 139°39'0 0.0
2016-Apr-25 01:33N 35°27' E 139°39'0 0.0
2016-Apr-25 00:33N 35°27' E 139°39'0 0.0
2016-Apr-24 23:33N 35°27' E 139°39'3 2.7
2016-Apr-24 22:34N 35°28' E 139°42'1 1.4
2016-Apr-24 21:33N 35°27' E 139°43'4 3.6
2016-Apr-24 20:33N 35°27' E 139°39'0 0.0
2016-Apr-24 19:34N 35°27' E 139°39'0 0.0
2016-Apr-24 18:34N 35°27' E 139°39'0 0.0
2016-Apr-24 17:34N 35°27' E 139°39'0 0.0
2016-Apr-24 16:34N 35°27' E 139°39'0 0.0
2016-Apr-24 15:33N 35°27' E 139°39'0 0.0
2016-Apr-24 14:33N 35°27' E 139°39'0 0.0
2016-Apr-24 13:33N 35°27' E 139°39'0 0.0
2016-Apr-24 12:33N 35°27' E 139°39'0 0.0
2016-Apr-24 11:33N 35°27' E 139°39'0 0.0
2016-Apr-24 10:33N 35°27' E 139°39'0 0.0
2016-Apr-24 09:33N 35°27' E 139°39'0 0.0
2016-Apr-24 08:33N 35°27' E 139°39'0 0.0
2016-Apr-24 07:33N 35°27' E 139°39'0 0.0
2016-Apr-24 06:33N 35°27' E 139°39'0 0.0
2016-Apr-24 05:33N 35°27' E 139°39'0 0.0
2016-Apr-24 04:33N 35°27' E 139°39'0 0.0
2016-Apr-24 03:33N 35°27' E 139°39'1 1.0
2016-Apr-24 02:33N 35°28' E 139°40'6 6.1
2016-Apr-24 01:33N 35°31' E 139°46'2 1.7
2016-Apr-24 00:33N 35°30' E 139°47'1 1.2
2016-Apr-23 23:33N 35°29' E 139°47'0 0.1
2016-Apr-23 22:33N 35°29' E 139°47'2 1.7
2016-Apr-23 21:33N 35°31' E 139°46'7 6.9
2016-Apr-23 20:33N 35°27' E 139°39'0 0.1
2016-Apr-23 19:33N 35°27' E 139°39'0 0.0
2016-Apr-23 18:33N 35°27' E 139°39'0 0.0
2016-Apr-23 17:33N 35°27' E 139°39'0 0.0
2016-Apr-23 16:33N 35°27' E 139°39'0 0.0
2016-Apr-23 15:33N 35°27' E 139°39'0 0.0
2016-Apr-23 14:33N 35°27' E 139°39'0 0.0
2016-Apr-23 13:33N 35°27' E 139°39'0 0.0
2016-Apr-23 12:33N 35°27' E 139°39'0 0.0
2016-Apr-23 11:33N 35°27' E 139°39'0 0.0
2016-Apr-23 10:33N 35°27' E 139°39'0 0.0
2016-Apr-23 09:33N 35°27' E 139°39'0 0.0
2016-Apr-23 08:33N 35°27' E 139°39'6 5.8
2016-Apr-23 07:33N 35°29' E 139°45'1 0.5
2016-Apr-23 06:33N 35°29' E 139°46'0 0.0
2016-Apr-23 05:33N 35°29' E 139°46'4 4.3
2016-Apr-23 04:33N 35°28' E 139°41'0 0.0
2016-Apr-23 03:33N 35°28' E 139°41'0 0.0
2016-Apr-23 02:33N 35°28' E 139°41'  
Track history (hours):
 
Tides and Currents Weather Stations Pressure Air Temp Water Temp Dewpoint Dewpoint Depression Visibility Wind Speed Wind Dir Waves Ship Positions

Yamato

Last reported at 2016-May-03 02:33 UTC. Time now 2016-May-03 03:00 UTC.
Position N 35°27' E 139°40'.

Length 40 m; draft 3.6 m.

Type: Tug. MMSI: 431101141.

Date/timePositionNaut miles runAvg speedWind from/ knotsBaromVisibWave heightAir tempDewpointWater temp
2016-May-03 02:33N 35°27' E 139°40'0 0.0
2016-May-03 01:34N 35°27' E 139°40'0 0.0
2016-May-03 00:34N 35°27' E 139°40'1 1.2
2016-May-02 23:33N 35°26' E 139°41'1 1.2
2016-May-02 22:34N 35°26' E 139°42'2 0.1
2016-May-02 06:33N 35°27' E 139°40'0 0.0
2016-May-02 05:33N 35°27' E 139°40'2 1.7
2016-May-02 04:33N 35°26' E 139°42'4 3.7
2016-May-02 03:34N 35°24' E 139°38'3 2.9
2016-May-02 02:33N 35°24' E 139°42'3 3.3
2016-May-02 01:33N 35°27' E 139°40'0 0.0
2016-May-02 00:34N 35°27' E 139°40'0 0.0
2016-May-01 23:33N 35°27' E 139°40'2 1.8
2016-May-01 22:33N 35°29' E 139°39'3 3.4
2016-May-01 21:33N 35°27' E 139°42'2 2.2
2016-May-01 20:33N 35°27' E 139°40'0 0.0
2016-May-01 19:33N 35°27' E 139°40'0 0.0
2016-May-01 18:33N 35°27' E 139°40'0 0.0
2016-May-01 17:33N 35°27' E 139°40'0 0.0
2016-May-01 16:33N 35°27' E 139°40'0 0.0
2016-May-01 15:33N 35°27' E 139°40'0 0.0
2016-May-01 14:33N 35°27' E 139°40'0 0.0
2016-May-01 13:33N 35°27' E 139°40'0 0.0
2016-May-01 12:33N 35°27' E 139°40'0 0.0
2016-May-01 11:33N 35°27' E 139°40'0 0.0
2016-May-01 10:34N 35°27' E 139°40'0 0.0
2016-May-01 09:33N 35°27' E 139°40'0 0.0
2016-May-01 08:33N 35°27' E 139°40'2 1.8
2016-May-01 07:33N 35°28' E 139°42'2 1.8
2016-May-01 06:33N 35°27' E 139°40'0 0.0
2016-May-01 05:34N 35°27' E 139°40'0 0.0
2016-May-01 04:34N 35°27' E 139°40'0 0.0
2016-May-01 03:33N 35°27' E 139°40'0 0.0
2016-May-01 02:33N 35°27' E 139°40'0 0.0
2016-May-01 01:33N 35°27' E 139°40'0 0.0
2016-May-01 00:33N 35°27' E 139°40'5 5.1
2016-Apr-30 23:34N 35°30' E 139°44'3 2.8
2016-Apr-30 22:33N 35°29' E 139°42'3 2.7
2016-Apr-30 21:33N 35°27' E 139°39'0 0.0
2016-Apr-30 20:33N 35°27' E 139°39'0 0.0
2016-Apr-30 19:34N 35°27' E 139°39'0 0.0
2016-Apr-30 18:34N 35°27' E 139°39'0 0.0
2016-Apr-30 17:33N 35°27' E 139°39'0 0.0
2016-Apr-30 16:34N 35°27' E 139°39'0 0.0
2016-Apr-30 15:33N 35°27' E 139°39'0 0.0
2016-Apr-30 14:33N 35°27' E 139°39'0 0.0
2016-Apr-30 13:33N 35°27' E 139°39'0 0.0
2016-Apr-30 12:33N 35°27' E 139°39'0 0.0
2016-Apr-30 11:33N 35°27' E 139°39'0 0.0
2016-Apr-30 10:33N 35°27' E 139°39'0 0.0
2016-Apr-30 09:33N 35°27' E 139°39'0 0.0
2016-Apr-30 08:33N 35°27' E 139°39'2 1.8
2016-Apr-30 07:34N 35°27' E 139°41'2 1.8
2016-Apr-30 06:33N 35°27' E 139°39'0 0.0
2016-Apr-30 05:33N 35°27' E 139°39'0 0.0
2016-Apr-30 04:33N 35°27' E 139°39'1 1.3
2016-Apr-30 03:34N 35°27' E 139°40'4 3.5
2016-Apr-30 02:33N 35°28' E 139°44'5 4.8
2016-Apr-30 01:33N 35°27' E 139°39'0 0.0
2016-Apr-30 00:33N 35°27' E 139°39'0 0.0
2016-Apr-29 23:33N 35°27' E 139°39'0 0.0
2016-Apr-29 22:33N 35°27' E 139°39'0 0.0
2016-Apr-29 21:33N 35°27' E 139°39'0 0.0
2016-Apr-29 20:33N 35°27' E 139°39'0 0.0
2016-Apr-29 19:33N 35°27' E 139°39'0 0.0
2016-Apr-29 18:33N 35°27' E 139°39'0 0.0
2016-Apr-29 17:33N 35°27' E 139°39'0 0.0
2016-Apr-29 16:33N 35°27' E 139°39'0 0.0
2016-Apr-29 15:33N 35°27' E 139°39'0 0.0
2016-Apr-29 14:33N 35°27' E 139°39'0 0.0
2016-Apr-29 13:33N 35°27' E 139°39'0 0.0
2016-Apr-29 12:33N 35°27' E 139°39'0 0.0
2016-Apr-29 11:33N 35°27' E 139°39'0 0.0
2016-Apr-29 10:33N 35°27' E 139°39'0 0.0
2016-Apr-29 09:33N 35°27' E 139°39'0 0.0
2016-Apr-29 08:34N 35°27' E 139°39'6 6.2
2016-Apr-29 07:33N 35°31' E 139°45'3 3.3
2016-Apr-29 06:33N 35°29' E 139°42'2 1.7
2016-Apr-29 05:33N 35°27' E 139°42'2 1.7
2016-Apr-29 04:33N 35°28' E 139°44'0 0.0
2016-Apr-29 03:33N 35°28' E 139°44'0 0.0
2016-Apr-29 02:33N 35°28' E 139°44'0 0.0
2016-Apr-29 01:33N 35°28' E 139°44'0 0.0
2016-Apr-29 00:33N 35°28' E 139°44'1 1.0
2016-Apr-28 23:34N 35°29' E 139°44'1 1.2
2016-Apr-28 22:33N 35°28' E 139°45'0 0.5
2016-Apr-28 21:33N 35°28' E 139°45'3 3.1
2016-Apr-28 20:33N 35°27' E 139°41'2 2.3
2016-Apr-28 19:33N 35°27' E 139°39'0 0.0
2016-Apr-28 18:33N 35°27' E 139°39'0 0.0
2016-Apr-28 17:33N 35°27' E 139°39'0 0.0
2016-Apr-28 16:33N 35°27' E 139°39'0 0.0
2016-Apr-28 15:33N 35°27' E 139°39'0 0.0
2016-Apr-28 14:33N 35°27' E 139°39'0 0.0
2016-Apr-28 13:33N 35°27' E 139°39'0 0.0
2016-Apr-28 12:33N 35°27' E 139°39'1 0.5
2016-Apr-28 11:33N 35°27' E 139°39'2 2.4
2016-Apr-28 10:33N 35°26' E 139°42'0 0.4
2016-Apr-28 09:33N 35°27' E 139°42'1 1.0
2016-Apr-28 08:33N 35°26' E 139°41'2 2.2
2016-Apr-28 07:33N 35°27' E 139°39'0 0.0
2016-Apr-28 06:33N 35°27' E 139°39'0 0.0
2016-Apr-28 05:33N 35°27' E 139°39'0 0.0
2016-Apr-28 04:33N 35°27' E 139°39'0 0.0
2016-Apr-28 03:33N 35°27' E 139°39'0 0.0
2016-Apr-28 02:33N 35°27' E 139°39'0 0.0
2016-Apr-28 01:33N 35°27' E 139°39'0 0.0
2016-Apr-28 00:33N 35°27' E 139°39'4 4.0
2016-Apr-27 23:33N 35°28' E 139°43'3 3.2
2016-Apr-27 22:34N 35°30' E 139°46'1 0.7
2016-Apr-27 21:33N 35°30' E 139°47'3 3.4
2016-Apr-27 20:33N 35°29' E 139°43'4 0.3
2016-Apr-27 07:33N 35°26' E 139°41'1 1.1
2016-Apr-27 06:33N 35°27' E 139°42'0 0.0
2016-Apr-27 05:33N 35°27' E 139°42'1 1.4
2016-Apr-27 04:33N 35°28' E 139°40'0 0.0
2016-Apr-27 03:33N 35°28' E 139°40'1 1.3
2016-Apr-27 02:33N 35°26' E 139°41'2 2.1
2016-Apr-27 01:33N 35°27' E 139°39'0 0.0
2016-Apr-27 00:33N 35°27' E 139°39'0 0.0
2016-Apr-26 23:33N 35°27' E 139°39'2 0.1
2016-Apr-25 23:33N 35°27' E 139°41'4 3.6
2016-Apr-25 22:33N 35°23' E 139°41'3 2.6
2016-Apr-25 21:33N 35°26' E 139°42'0 0.0
2016-Apr-25 20:33N 35°26' E 139°42'0 0.0
2016-Apr-25 19:33N 35°26' E 139°42'0 0.0
2016-Apr-25 18:33N 35°26' E 139°42'1 1.5
2016-Apr-25 17:33N 35°27' E 139°40'2 1.6
2016-Apr-25 16:33N 35°27' E 139°39'0 0.0
2016-Apr-25 15:33N 35°27' E 139°39'0 0.0
2016-Apr-25 14:33N 35°27' E 139°39'0 0.0
2016-Apr-25 13:33N 35°27' E 139°39'0 0.0
2016-Apr-25 12:33N 35°27' E 139°39'0 0.0
2016-Apr-25 11:33N 35°27' E 139°39'0 0.0
2016-Apr-25 10:33N 35°27' E 139°39'3 2.5
2016-Apr-25 09:33N 35°27' E 139°42'0 0.4
2016-Apr-25 08:33N 35°27' E 139°42'0 0.0
2016-Apr-25 07:33N 35°27' E 139°42'0 0.0
2016-Apr-25 06:33N 35°27' E 139°42'1 1.0
2016-Apr-25 05:33N 35°27' E 139°41'2 2.0
2016-Apr-25 04:33N 35°27' E 139°39'0 0.0
2016-Apr-25 03:33N 35°27' E 139°39'0 0.0
2016-Apr-25 02:33N 35°27' E 139°39'0 0.0
2016-Apr-25 01:33N 35°27' E 139°39'0 0.0
2016-Apr-25 00:33N 35°27' E 139°39'0 0.0
2016-Apr-24 23:33N 35°27' E 139°39'3 2.7
2016-Apr-24 22:34N 35°28' E 139°42'1 1.4
2016-Apr-24 21:33N 35°27' E 139°43'4 3.6
2016-Apr-24 20:33N 35°27' E 139°39'0 0.0
2016-Apr-24 19:34N 35°27' E 139°39'0 0.0
2016-Apr-24 18:34N 35°27' E 139°39'0 0.0
2016-Apr-24 17:34N 35°27' E 139°39'0 0.0
2016-Apr-24 16:34N 35°27' E 139°39'0 0.0
2016-Apr-24 15:33N 35°27' E 139°39'0 0.0
2016-Apr-24 14:33N 35°27' E 139°39'0 0.0
2016-Apr-24 13:33N 35°27' E 139°39'0 0.0
2016-Apr-24 12:33N 35°27' E 139°39'0 0.0
2016-Apr-24 11:33N 35°27' E 139°39'0 0.0
2016-Apr-24 10:33N 35°27' E 139°39'0 0.0
2016-Apr-24 09:33N 35°27' E 139°39'0 0.0
2016-Apr-24 08:33N 35°27' E 139°39'0 0.0
2016-Apr-24 07:33N 35°27' E 139°39'0 0.0
2016-Apr-24 06:33N 35°27' E 139°39'0 0.0
2016-Apr-24 05:33N 35°27' E 139°39'0 0.0
2016-Apr-24 04:33N 35°27' E 139°39'0 0.0
2016-Apr-24 03:33N 35°27' E 139°39'1 1.0
2016-Apr-24 02:33N 35°28' E 139°40'6 6.1
2016-Apr-24 01:33N 35°31' E 139°46'2 1.7
2016-Apr-24 00:33N 35°30' E 139°47'1 1.2
2016-Apr-23 23:33N 35°29' E 139°47'0 0.1
2016-Apr-23 22:33N 35°29' E 139°47'2 1.7
2016-Apr-23 21:33N 35°31' E 139°46'7 6.9
2016-Apr-23 20:33N 35°27' E 139°39'0 0.1
2016-Apr-23 19:33N 35°27' E 139°39'0 0.0
2016-Apr-23 18:33N 35°27' E 139°39'0 0.0
2016-Apr-23 17:33N 35°27' E 139°39'0 0.0
2016-Apr-23 16:33N 35°27' E 139°39'0 0.0
2016-Apr-23 15:33N 35°27' E 139°39'0 0.0
2016-Apr-23 14:33N 35°27' E 139°39'0 0.0
2016-Apr-23 13:33N 35°27' E 139°39'0 0.0
2016-Apr-23 12:33N 35°27' E 139°39'0 0.0
2016-Apr-23 11:33N 35°27' E 139°39'0 0.0
2016-Apr-23 10:33N 35°27' E 139°39'0 0.0
2016-Apr-23 09:33N 35°27' E 139°39'0 0.0
2016-Apr-23 08:33N 35°27' E 139°39'6 5.8
2016-Apr-23 07:33N 35°29' E 139°45'1 0.5
2016-Apr-23 06:33N 35°29' E 139°46'0 0.0
2016-Apr-23 05:33N 35°29' E 139°46'4 4.3
2016-Apr-23 04:33N 35°28' E 139°41'0 0.0
2016-Apr-23 03:33N 35°28' E 139°41'0 0.0
2016-Apr-23 02:33N 35°28' E 139°41'  

Dump ship's entire track history